Time;durP1;ratioP1;P1;durP2;ratioP2;P2;SDS_P1;SDS_P2;PMS_P1;PMS_P2;Temp;Humidity;BMP_temperature;BMP_pressure;BME280_temperature;BME280_humidity;BME280_pressure;Samples;Min_cycle;Max_cycle;Signal;HPM_P1;HPM_P2
2022/04/23 00:01:56;;;;;;;3.40;3.20;;;14.40;59.00;14.60;95231.00;;;;5031878;28;20226;-88
2022/04/23 00:04:23;;;;;;;3.33;3.13;;;14.30;59.10;14.60;95223.00;;;;5031189;28;20223;-87
2022/04/23 00:06:50;;;;;;;3.30;3.10;;;14.30;59.10;14.60;95229.00;;;;5023432;28;20201;-88
2022/04/23 00:09:18;;;;;;;3.27;3.07;;;14.30;59.70;14.60;95218.00;;;;5013845;28;20194;-87
2022/04/23 00:11:45;;;;;;;3.50;3.30;;;14.30;59.30;14.60;95214.00;;;;5012211;28;20214;-87
2022/04/23 00:14:14;;;;;;;3.20;3.00;;;14.30;59.20;14.60;95222.00;;;;5024843;28;20221;-87
2022/04/23 00:16:41;;;;;;;3.53;3.33;;;14.30;59.30;14.60;95227.00;;;;5032024;28;20205;-87
2022/04/23 00:19:08;;;;;;;3.10;2.90;;;14.30;59.30;14.60;95223.00;;;;5018434;28;20281;-88
2022/04/23 00:21:35;;;;;;;3.47;3.27;;;14.30;59.20;14.60;95221.00;;;;5022275;28;20314;-87
2022/04/23 00:24:03;;;;;;;3.60;3.40;;;14.30;59.20;14.60;95225.00;;;;5029122;28;20224;-87
2022/04/23 00:26:31;;;;;;;3.67;3.47;;;14.40;59.30;14.60;95224.00;;;;5035030;28;20228;-87
2022/04/23 00:28:58;;;;;;;3.53;3.33;;;14.30;59.20;14.60;95222.00;;;;5035402;28;20197;-88
2022/04/23 00:31:26;;;;;;;3.93;3.63;;;14.30;59.30;14.70;95219.00;;;;5025734;28;20208;-87
2022/04/23 00:33:54;;;;;;;4.00;3.73;;;14.30;59.30;14.70;95224.00;;;;5029112;28;20260;-87
2022/04/23 00:36:23;;;;;;;3.67;3.47;;;14.30;59.30;14.70;95217.00;;;;5038113;28;20205;-87
2022/04/23 00:38:52;;;;;;;3.87;3.67;;;14.30;59.30;14.70;95216.00;;;;5047493;28;20237;-87
2022/04/23 00:44:05;;;;;;;3.40;3.20;;;14.30;59.40;14.60;95225.00;;;;5015203;28;20711;-88
2022/04/23 00:46:34;;;;;;;4.00;3.70;;;14.30;59.40;14.70;95227.00;;;;5024070;28;20288;-87
2022/04/23 00:49:03;;;;;;;3.87;3.57;;;14.30;59.50;14.70;95218.00;;;;5048938;28;20271;-87
2022/04/23 00:51:32;;;;;;;3.73;3.53;;;14.30;59.40;14.70;95222.00;;;;5044637;28;20288;-87
2022/04/23 00:54:05;;;;;;;3.93;3.70;;;14.30;59.50;14.70;95215.00;;;;5021656;28;20221;-87
2022/04/23 00:56:33;;;;;;;4.10;3.80;;;14.30;59.50;14.70;95213.00;;;;5019223;28;20186;-87
2022/04/23 00:59:04;;;;;;;4.07;3.77;;;14.30;59.50;14.70;95216.00;;;;5034513;28;20280;-87
2022/04/23 01:01:32;;;;;;;4.00;3.70;;;14.30;59.50;14.70;95214.00;;;;5018203;28;20617;-88
2022/04/23 01:04:02;;;;;;;3.53;3.33;;;14.30;59.50;14.70;95218.00;;;;5027645;28;20312;-87
2022/04/23 01:06:34;;;;;;;4.20;3.90;;;14.30;59.50;14.60;95217.00;;;;5032770;28;20193;-87
2022/04/23 01:09:04;;;;;;;4.33;3.93;;;14.30;59.60;14.60;95214.00;;;;5035015;28;20604;-87
2022/04/23 01:11:32;;;;;;;4.07;3.77;;;14.30;59.80;14.70;95218.00;;;;5028887;28;20648;-87
2022/04/23 01:14:00;;;;;;;3.87;3.63;;;14.30;60.40;14.70;95220.00;;;;5034309;28;20229;-87
2022/04/23 01:16:28;;;;;;;4.50;4.20;;;14.30;59.80;14.70;95216.00;;;;5022435;28;20205;-87
2022/04/23 01:18:56;;;;;;;5.30;4.90;;;14.30;59.70;14.70;95219.00;;;;5028593;28;20194;-87
2022/04/23 01:21:26;;;;;;;5.10;4.70;;;14.30;59.70;14.70;95206.00;;;;5032992;28;20596;-87
2022/04/23 01:23:53;;;;;;;5.07;4.67;;;14.30;59.80;14.60;95205.00;;;;5026333;28;20228;-87
2022/04/23 01:26:29;;;;;;;5.00;4.60;;;14.30;59.80;14.60;95207.00;;;;5033727;28;20206;-87
2022/04/23 01:28:57;;;;;;;4.47;4.10;;;14.30;60.00;14.60;95203.00;;;;5033836;28;20197;-87
2022/04/23 01:31:24;;;;;;;5.10;4.67;;;14.30;59.90;14.70;95205.00;;;;5029090;28;20202;-87
2022/04/23 01:33:52;;;;;;;5.70;5.20;;;14.30;60.60;14.70;95205.00;;;;5014361;28;20222;-87
2022/04/23 01:36:20;;;;;;;5.47;5.07;;;14.30;59.90;14.70;95203.00;;;;5026255;28;20225;-87
2022/04/23 01:38:48;;;;;;;5.73;5.33;;;14.40;59.90;14.70;95208.00;;;;5026847;28;20204;-87
2022/04/23 01:41:16;;;;;;;5.00;4.70;;;14.30;59.90;14.70;95201.00;;;;5014083;28;20299;-87
2022/04/23 01:43:43;;;;;;;5.80;5.27;;;14.30;59.80;14.70;95211.00;;;;5032844;28;20300;-87
2022/04/23 01:46:10;;;;;;;4.97;4.50;;;14.40;60.00;14.70;95208.00;;;;5033349;28;20636;-87
2022/04/23 01:48:38;;;;;;;5.27;4.77;;;14.30;59.80;14.70;95216.00;;;;5033693;28;20193;-87
2022/04/23 01:51:05;;;;;;;5.23;4.83;;;14.30;59.90;14.70;95214.00;;;;5028498;28;20206;-87
2022/04/23 01:53:32;;;;;;;5.03;4.63;;;14.30;59.90;14.70;95219.00;;;;5023123;28;20709;-87
2022/04/23 01:56:00;;;;;;;5.37;4.97;;;14.30;59.80;14.60;95216.00;;;;5030901;28;20197;-87
2022/04/23 01:58:27;;;;;;;4.57;4.27;;;14.30;59.90;14.60;95214.00;;;;5033806;28;20213;-87
2022/04/23 02:00:55;;;;;;;5.00;4.60;;;14.30;59.90;14.60;95224.00;;;;5032813;28;20673;-87
2022/04/23 02:03:22;;;;;;;6.53;4.70;;;14.30;59.90;14.70;95224.00;;;;5030856;28;20225;-87
2022/04/23 02:05:49;;;;;;;4.67;4.37;;;14.30;60.00;14.70;95228.00;;;;5013586;28;20213;-88
2022/04/23 02:08:18;;;;;;;5.30;4.80;;;14.30;60.10;14.70;95233.00;;;;5013756;28;20549;-87
2022/04/23 02:10:47;;;;;;;4.97;4.57;;;14.30;60.00;14.60;95238.00;;;;5013941;28;20197;-87
2022/04/23 02:13:16;;;;;;;4.77;4.37;;;14.30;60.00;14.60;95239.00;;;;5034982;22;21355;-86
2022/04/23 02:15:43;;;;;;;5.10;4.70;;;14.30;60.20;14.70;95239.00;;;;5051590;28;20191;-85
2022/04/23 02:18:11;;;;;;;5.20;4.70;;;14.30;60.10;14.60;95238.00;;;;5052685;28;20209;-85
2022/04/23 02:20:38;;;;;;;5.30;4.90;;;14.30;60.00;14.60;95236.00;;;;5040555;28;20193;-85
2022/04/23 02:23:05;;;;;;;4.83;4.43;;;14.30;60.10;14.60;95236.00;;;;5049106;28;20717;-85
2022/04/23 02:25:34;;;;;;;4.97;4.57;;;14.30;60.10;14.70;95230.00;;;;5032744;28;20288;-85
2022/04/23 02:28:01;;;;;;;5.20;4.80;;;14.30;60.10;14.70;95228.00;;;;5033122;28;20207;-86
2022/04/23 02:30:31;;;;;;;5.10;4.70;;;14.30;60.10;14.70;95221.00;;;;5033106;28;20236;-85
2022/04/23 02:32:58;;;;;;;5.20;4.80;;;14.30;60.20;14.70;95223.00;;;;5032704;28;20700;-85
2022/04/23 02:35:25;;;;;;;5.77;5.27;;;14.40;60.20;14.70;95227.00;;;;5032430;28;20626;-84
2022/04/23 02:37:56;;;;;;;5.90;5.30;;;14.40;60.10;14.70;95218.00;;;;5012978;28;20201;-85
2022/04/23 02:40:24;;;;;;;5.60;5.17;;;14.40;60.00;14.70;95227.00;;;;5012740;28;20240;-86
2022/04/23 02:42:51;;;;;;;5.70;5.27;;;14.40;60.00;14.70;95220.00;;;;5028828;28;20217;-85
2022/04/23 02:45:20;;;;;;;5.40;4.90;;;14.40;60.00;14.70;95216.00;;;;5012559;28;20249;-85
2022/04/23 02:47:51;;;;;;;5.80;5.30;;;14.30;60.00;14.70;95212.00;;;;5031633;28;20200;-85
2022/04/23 02:50:27;;;;;;;5.37;4.87;;;14.40;60.00;14.70;95224.00;;;;5014219;28;20190;-85
2022/04/23 02:52:56;;;;;;;5.40;4.90;;;14.40;60.00;14.70;95201.00;;;;5031991;28;20208;-85
2022/04/23 02:55:24;;;;;;;5.57;5.07;;;14.30;59.90;14.60;95204.00;;;;5031974;28;20654;-85
2022/04/23 02:57:52;;;;;;;6.17;5.67;;;14.30;59.90;14.60;95209.00;;;;5022829;28;20201;-85
2022/04/23 03:00:20;;;;;;;6.53;5.93;;;14.30;60.00;14.60;95206.00;;;;5016736;28;20197;-85
2022/04/23 03:02:49;;;;;;;5.53;5.13;;;14.30;59.90;14.60;95204.00;;;;5022367;28;20299;-85
2022/04/23 03:05:16;;;;;;;5.83;5.30;;;14.30;59.90;14.60;95205.00;;;;5028638;28;20198;-85
2022/04/23 03:07:44;;;;;;;5.37;4.90;;;14.30;59.80;14.60;95211.00;;;;5029937;28;20204;-85
2022/04/23 03:10:14;;;;;;;5.77;5.27;;;14.30;59.80;14.60;95211.00;;;;5030409;28;20216;-86
2022/04/23 03:12:41;;;;;;;6.10;5.50;;;14.30;59.90;14.60;95208.00;;;;5011678;28;20265;-85
2022/04/23 03:15:13;;;;;;;6.37;5.77;;;14.30;59.90;14.60;95206.00;;;;5012731;28;20789;-85
2022/04/23 03:17:40;;;;;;;5.43;4.97;;;14.30;60.00;14.60;95196.00;;;;5031850;28;20554;-84
2022/04/23 03:20:12;;;;;;;6.27;5.67;;;14.30;60.10;14.60;95202.00;;;;5031020;28;20204;-85
2022/04/23 03:22:40;;;;;;;6.20;5.60;;;14.30;60.10;14.60;95194.00;;;;5031993;28;20237;-85
2022/04/23 03:25:09;;;;;;;6.53;5.93;;;14.30;60.00;14.60;95202.00;;;;5031723;28;20800;-84
2022/04/23 03:27:37;;;;;;;6.17;5.63;;;14.30;60.10;14.60;95202.00;;;;5032255;28;20193;-84
2022/04/23 03:30:07;;;;;;;6.73;6.17;;;14.30;60.00;14.60;95195.00;;;;5031351;28;20194;-84
2022/04/23 03:32:34;;;;;;;6.77;6.10;;;14.30;60.10;14.60;95186.00;;;;5023211;28;20198;-85
2022/04/23 03:35:01;;;;;;;6.13;5.63;;;14.40;60.20;14.60;95201.00;;;;5032027;28;20275;-83
2022/04/23 03:37:29;;;;;;;7.20;6.50;;;14.30;60.20;14.60;95197.00;;;;5033292;28;20576;-83
2022/04/23 03:39:56;;;;;;;7.37;6.73;;;14.30;60.20;14.60;95198.00;;;;5034492;28;20193;-84
2022/04/23 03:42:24;;;;;;;6.23;5.73;;;14.30;60.20;14.60;95198.00;;;;5018033;28;20310;-85
2022/04/23 03:44:51;;;;;;;7.03;6.37;;;14.30;60.30;14.60;95195.00;;;;5015042;28;20221;-84
2022/04/23 03:47:18;;;;;;;7.13;6.53;;;14.30;60.30;14.60;95197.00;;;;5031442;28;20197;-85
2022/04/23 03:49:45;;;;;;;7.00;6.40;;;14.30;60.30;14.70;95201.00;;;;5034290;28;20204;-84
2022/04/23 03:52:12;;;;;;;6.87;6.27;;;14.30;60.50;14.70;95207.00;;;;5020622;28;20202;-83
2022/04/23 03:54:40;;;;;;;7.13;6.43;;;14.30;60.40;14.70;95204.00;;;;5017818;28;20218;-83
2022/04/23 03:57:08;;;;;;;6.43;5.93;;;14.40;60.50;14.70;95207.00;;;;5020159;28;20292;-83
2022/04/23 03:59:37;;;;;;;6.37;5.80;;;14.40;60.50;14.70;95207.00;;;;5017635;28;20198;-84
2022/04/23 04:02:05;;;;;;;6.67;6.07;;;14.40;60.30;14.70;95208.00;;;;5018401;28;20226;-84
2022/04/23 04:04:32;;;;;;;6.00;5.50;;;14.30;60.20;14.70;95216.00;;;;5033974;28;20220;-83
2022/04/23 04:07:00;;;;;;;6.40;5.80;;;14.30;60.20;14.70;95212.00;;;;5024301;28;20205;-83
2022/04/23 04:09:28;;;;;;;6.20;5.70;;;14.30;60.30;14.70;95206.00;;;;5030530;28;20607;-84
2022/04/23 04:12:02;;;;;;;6.40;5.80;;;14.30;60.50;14.70;95209.00;;;;5029223;28;20197;-84
2022/04/23 04:14:31;;;;;;;5.83;5.33;;;14.30;60.50;14.70;95206.00;;;;5027636;28;20228;-84
2022/04/23 04:17:00;;;;;;;5.30;4.80;;;14.30;60.20;14.60;95208.00;;;;5017492;28;20205;-83
2022/04/23 04:19:28;;;;;;;5.30;4.80;;;14.30;60.20;14.60;95195.00;;;;5035827;28;20662;-84
2022/04/23 04:21:56;;;;;;;5.97;5.47;;;14.30;60.20;14.60;95194.00;;;;5036768;28;20311;-83
2022/04/23 04:24:24;;;;;;;5.90;5.40;;;14.30;60.30;14.60;95196.00;;;;5035909;28;20315;-83
2022/04/23 04:26:52;;;;;;;5.80;5.27;;;14.30;60.30;14.60;95186.00;;;;5036178;28;20271;-84
2022/04/23 04:29:22;;;;;;;6.40;5.80;;;14.30;60.40;14.60;95207.00;;;;5035741;28;20659;-84
2022/04/23 04:31:49;;;;;;;5.77;5.27;;;14.30;60.40;14.60;95195.00;;;;5036147;28;20201;-84
2022/04/23 04:34:17;;;;;;;5.83;5.30;;;14.30;60.50;14.60;95198.00;;;;5035872;28;20257;-84
2022/04/23 04:36:44;;;;;;;6.27;5.77;;;14.30;60.50;14.60;95205.00;;;;5030982;28;20205;-83
2022/04/23 04:39:11;;;;;;;5.23;4.73;;;14.30;60.60;14.60;95205.00;;;;5036581;28;20284;-83
2022/04/23 04:41:39;;;;;;;5.37;4.90;;;14.40;60.50;14.60;95206.00;;;;5035569;28;20284;-81
2022/04/23 04:44:06;;;;;;;5.63;5.13;;;14.30;60.50;14.60;95211.00;;;;5031205;28;20229;-81
2022/04/23 04:46:36;;;;;;;5.40;4.90;;;14.20;60.50;14.60;95206.00;;;;5029118;28;20201;-82
2022/04/23 04:49:04;;;;;;;4.97;4.57;;;14.30;60.60;14.60;95205.00;;;;5036817;28;20643;-81
2022/04/23 04:51:35;;;;;;;5.23;4.73;;;14.30;60.50;14.60;95208.00;;;;5037226;28;20373;-81
2022/04/23 04:54:02;;;;;;;4.73;4.33;;;14.30;60.60;14.60;95198.00;;;;5024089;28;20242;-81
2022/04/23 04:56:29;;;;;;;4.63;4.23;;;14.30;60.70;14.70;95197.00;;;;5036844;28;20589;-81
2022/04/23 04:58:56;;;;;;;5.47;4.97;;;14.30;60.70;14.70;95192.00;;;;5037094;28;20197;-82
2022/04/23 05:01:23;;;;;;;5.37;4.87;;;14.30;60.80;14.70;95191.00;;;;5036648;28;20658;-81
2022/04/23 05:03:53;;;;;;;5.03;4.63;;;14.40;60.90;14.70;95185.00;;;;5036665;28;20243;-81
2022/04/23 05:06:20;;;;;;;5.30;4.80;;;14.40;60.90;14.70;95182.00;;;;5036875;28;20206;-81
2022/04/23 05:08:47;;;;;;;5.90;5.30;;;14.40;60.90;14.80;95181.00;;;;5025538;28;20201;-81
2022/04/23 05:11:15;;;;;;;5.50;5.00;;;14.40;61.00;14.80;95184.00;;;;5030505;28;20198;-81
2022/04/23 05:13:42;;;;;;;5.30;4.87;;;14.40;61.00;14.80;95193.00;;;;5032332;28;20233;-81
2022/04/23 05:16:09;;;;;;;5.13;4.73;;;14.40;60.90;14.70;95196.00;;;;5016432;28;20198;-83
2022/04/23 05:18:36;;;;;;;5.20;4.70;;;14.40;61.60;14.80;95194.00;;;;5015539;28;20205;-83
2022/04/23 05:21:05;;;;;;;4.90;4.50;;;14.40;60.90;14.80;95192.00;;;;5029287;28;20631;-83
2022/04/23 05:23:33;;;;;;;6.90;5.30;;;14.40;61.10;14.80;95190.00;;;;5034960;28;20695;-83
2022/04/23 05:26:01;;;;;;;5.17;4.77;;;14.50;61.10;14.80;95190.00;;;;5034217;28;20212;-83
2022/04/23 05:28:28;;;;;;;5.20;4.70;;;14.40;61.10;14.80;95193.00;;;;5026537;28;20186;-83
2022/04/23 05:30:56;;;;;;;5.03;4.63;;;14.40;61.10;14.80;95197.00;;;;5014693;28;20194;-82
2022/04/23 05:33:22;;;;;;;5.40;4.90;;;14.40;61.10;14.90;95196.00;;;;5014616;28;20233;-83
2022/04/23 05:35:49;;;;;;;5.27;4.70;;;14.50;61.30;14.90;95189.00;;;;5017795;28;20190;-83
2022/04/23 05:38:21;;;;;;;4.60;4.20;;;14.50;61.20;14.90;95195.00;;;;5034051;28;20194;-84
2022/04/23 05:40:49;;;;;;;5.00;4.60;;;14.50;61.20;14.90;95185.00;;;;5032837;28;20546;-82
2022/04/23 05:43:16;;;;;;;4.80;4.40;;;14.50;61.10;14.90;95198.00;;;;5032819;28;20229;-83
2022/04/23 05:45:44;;;;;;;5.27;4.77;;;14.50;61.10;15.00;95203.00;;;;5029439;28;20212;-83
2022/04/23 05:48:11;;;;;;;5.00;4.60;;;14.60;61.30;15.00;95207.00;;;;5020721;28;20198;-83
2022/04/23 05:50:38;;;;;;;4.57;4.20;;;14.60;61.30;15.00;95213.00;;;;5022646;28;20198;-82
2022/04/23 05:53:05;;;;;;;5.00;4.47;;;14.60;61.20;15.00;95215.00;;;;5018325;28;20224;-83
2022/04/23 05:55:34;;;;;;;5.00;4.60;;;14.60;61.30;15.10;95217.00;;;;5021895;28;20655;-82
2022/04/23 05:58:02;;;;;;;4.87;4.47;;;14.60;61.40;15.10;95216.00;;;;5022890;28;20217;-83
2022/04/23 06:00:29;;;;;;;5.30;4.90;;;14.70;61.30;15.10;95208.00;;;;5032622;28;20221;-83
2022/04/23 06:02:56;;;;;;;5.40;4.90;;;14.70;61.30;15.10;95208.00;;;;5029201;28;20223;-83
2022/04/23 06:05:23;;;;;;;5.47;5.07;;;14.70;62.10;15.20;95198.00;;;;5025446;28;20200;-82
2022/04/23 06:07:50;;;;;;;5.60;5.10;;;14.70;61.30;15.20;95210.00;;;;5025564;28;20644;-84
2022/04/23 06:10:17;;;;;;;5.67;5.17;;;14.70;61.30;15.20;95204.00;;;;5022180;28;20281;-84
2022/04/23 06:12:46;;;;;;;6.63;4.63;;;14.80;61.40;15.30;95203.00;;;;5032020;28;20212;-82
2022/04/23 06:15:13;;;;;;;5.50;5.00;;;14.80;61.40;15.40;95207.00;;;;5032763;28;20214;-84
2022/04/23 06:17:40;;;;;;;5.20;4.80;;;14.80;61.30;15.40;95211.00;;;;5033716;28;20196;-83
2022/04/23 06:20:08;;;;;;;5.57;5.07;;;14.90;61.20;15.40;95214.00;;;;5035299;28;20201;-84
2022/04/23 06:22:35;;;;;;;5.40;5.00;;;14.90;61.20;15.40;95211.00;;;;5036950;28;20225;-83
2022/04/23 06:25:03;;;;;;;5.33;4.93;;;14.90;61.20;15.40;95203.00;;;;5029582;28;20717;-80
2022/04/23 06:27:30;;;;;;;5.53;5.03;;;14.90;61.10;15.50;95211.00;;;;5030856;28;20194;-83
2022/04/23 06:29:59;;;;;;;4.90;4.43;;;14.90;61.10;15.50;95214.00;;;;5032556;28;20596;-84
2022/04/23 06:32:26;;;;;;;5.20;4.70;;;14.90;61.20;15.50;95210.00;;;;5036290;28;20209;-83
2022/04/23 06:34:53;;;;;;;5.37;4.87;;;15.00;61.30;15.60;95207.00;;;;5035336;28;20307;-83
2022/04/23 06:37:20;;;;;;;5.50;5.00;;;15.00;61.40;15.60;95207.00;;;;5031946;28;20292;-84
2022/04/23 06:39:47;;;;;;;5.40;5.00;;;15.10;61.50;15.70;95208.00;;;;5036529;28;20204;-84
2022/04/23 06:42:14;;;;;;;6.10;5.60;;;15.10;61.40;15.80;95211.00;;;;5034535;28;20592;-82
2022/04/23 06:44:41;;;;;;;5.63;5.13;;;15.20;61.30;15.80;95211.00;;;;5031507;28;20224;-84
2022/04/23 06:47:10;;;;;;;5.60;5.10;;;15.20;61.20;15.90;95213.00;;;;5029168;28;20232;-85
2022/04/23 06:49:37;;;;;;;6.00;5.50;;;15.30;61.20;16.00;95204.00;;;;5027414;28;20212;-84
2022/04/23 06:52:05;;;;;;;6.17;5.57;;;15.30;61.10;16.10;95210.00;;;;5021512;28;20201;-82
2022/04/23 06:54:32;;;;;;;6.63;5.20;;;15.40;61.20;16.10;95207.00;;;;5033242;28;20592;-84
2022/04/23 06:56:59;;;;;;;5.97;5.47;;;15.40;61.10;16.20;95216.00;;;;5030104;28;20198;-84
2022/04/23 06:59:26;;;;;;;5.43;5.03;;;15.60;61.10;16.30;95213.00;;;;5014508;28;20276;-84
2022/04/23 07:01:53;;;;;;;5.77;5.27;;;15.60;60.90;16.40;95209.00;;;;5015337;28;20205;-84
2022/04/23 07:04:22;;;;;;;4.97;4.47;;;15.60;60.80;16.40;95198.00;;;;5022770;28;20312;-84
2022/04/23 07:06:49;;;;;;;5.07;4.67;;;15.70;60.70;16.50;95197.00;;;;5033583;28;20619;-83
2022/04/23 07:09:16;;;;;;;6.13;5.43;;;15.80;60.70;16.50;95195.00;;;;5033645;28;20279;-84
2022/04/23 07:11:43;;;;;;;5.30;4.90;;;15.80;60.50;16.60;95206.00;;;;5033463;28;20205;-85
2022/04/23 07:14:10;;;;;;;5.27;4.87;;;15.90;60.50;16.70;95206.00;;;;5033116;28;20235;-83
2022/04/23 07:16:37;;;;;;;5.63;5.07;;;16.00;60.50;16.80;95210.00;;;;5032918;28;20565;-83
2022/04/23 07:19:07;;;;;;;5.33;4.83;;;16.00;60.40;16.80;95205.00;;;;5025765;28;20193;-83
2022/04/23 07:21:35;;;;;;;5.13;4.60;;;16.10;60.30;16.90;95212.00;;;;5013813;28;20198;-84
2022/04/23 07:24:05;;;;;;;5.93;5.33;;;16.20;60.20;17.00;95214.00;;;;5026718;28;20234;-85
2022/04/23 07:26:34;;;;;;;6.70;6.00;;;16.20;60.00;17.00;95209.00;;;;5013102;28;20281;-87
2022/04/23 07:29:03;;;;;;;5.97;5.40;;;16.30;59.80;17.10;95209.00;;;;5026466;28;20251;-84
2022/04/23 07:31:30;;;;;;;5.70;5.20;;;16.30;59.70;17.10;95217.00;;;;5037412;28;20205;-83
2022/04/23 07:39:28;;;;;;;5.43;5.03;;;16.50;59.60;17.30;95218.00;;;;5029286;28;20200;-86
2022/04/23 07:41:55;;;;;;;6.23;5.47;;;16.60;59.40;17.40;95221.00;;;;5036814;28;20718;-83
2022/04/23 07:44:22;;;;;;;5.63;5.17;;;16.60;59.30;17.40;95219.00;;;;5037661;28;20225;-83
2022/04/23 07:46:50;;;;;;;5.40;4.90;;;16.70;59.30;17.50;95215.00;;;;5039614;28;20204;-83
2022/04/23 07:49:17;;;;;;;5.47;5.00;;;16.70;59.40;17.60;95214.00;;;;5034333;28;20436;-83
2022/04/23 07:51:47;;;;;;;4.83;4.43;;;16.80;59.20;17.60;95215.00;;;;5035273;28;20213;-82
2022/04/23 07:54:15;;;;;;;6.07;5.47;;;16.80;59.10;17.60;95210.00;;;;5025495;28;20221;-84
2022/04/23 07:56:44;;;;;;;10.20;6.27;;;16.90;59.00;17.70;95216.00;;;;5030664;28;20543;-83
2022/04/23 07:59:11;;;;;;;5.80;5.00;;;16.90;58.90;17.70;95204.00;;;;5037504;28;20193;-85
2022/04/23 08:01:38;;;;;;;5.67;5.07;;;16.90;58.80;17.70;95215.00;;;;5019570;28;20201;-85
2022/04/23 08:04:06;;;;;;;5.40;5.00;;;17.00;58.80;17.80;95210.00;;;;5016824;28;20233;-84
2022/04/23 08:06:35;;;;;;;6.13;5.63;;;17.00;58.60;17.80;95208.00;;;;5018177;28;20201;-88
2022/04/23 08:09:05;;;;;;;5.77;5.27;;;17.00;58.50;17.90;95198.00;;;;5029921;28;20248;-86
2022/04/23 08:11:32;;;;;;;5.60;5.07;;;17.10;58.50;17.80;95196.00;;;;5033970;28;20205;-84
2022/04/23 08:13:59;;;;;;;5.73;5.23;;;17.10;58.40;17.90;95191.00;;;;5054574;22;20224;-84
2022/04/23 08:16:30;;;;;;;5.57;5.07;;;17.10;58.30;17.90;95196.00;;;;5018125;28;20300;-86
2022/04/23 08:18:57;;;;;;;5.90;5.40;;;17.20;58.30;18.00;95191.00;;;;5023451;28;20194;-84
2022/04/23 08:21:24;;;;;;;5.47;4.97;;;17.20;58.30;18.00;95197.00;;;;5022463;28;20252;-85
2022/04/23 08:23:54;;;;;;;5.83;5.33;;;17.20;58.10;18.00;95192.00;;;;5017161;28;20681;-85
2022/04/23 08:26:22;;;;;;;4.87;4.47;;;17.30;58.00;18.10;95193.00;;;;5026614;28;20233;-85
2022/04/23 08:31:34;;;;;;;4.53;4.10;;;17.30;57.70;18.10;95190.00;;;;5033611;28;20177;-87
2022/04/23 08:34:04;;;;;;;5.13;4.63;;;17.30;57.60;18.10;95194.00;;;;5033055;28;20319;-86
2022/04/23 08:36:35;;;;;;;5.90;5.03;;;17.40;57.70;18.10;95207.00;;;;5026794;28;20374;-85
2022/04/23 08:39:04;;;;;;;6.17;5.50;;;17.40;57.70;18.10;95193.00;;;;5012763;28;20197;-85
2022/04/23 08:41:35;;;;;;;6.77;5.97;;;17.40;57.50;18.10;95195.00;;;;5028700;28;20235;-85
2022/04/23 08:44:06;;;;;;;7.03;5.97;;;17.30;57.40;18.10;95194.00;;;;5033055;28;20240;-85
2022/04/23 08:46:39;;;;;;;6.03;5.53;;;17.40;57.40;18.10;95189.00;;;;5023958;28;20768;-85
2022/04/23 08:49:13;;;;;;;6.10;5.57;;;17.40;57.80;18.10;95190.00;;;;5026902;28;20197;-85
2022/04/23 08:51:43;;;;;;;6.77;5.80;;;17.40;57.30;18.10;95189.00;;;;5015446;28;20217;-85
2022/04/23 08:54:14;;;;;;;8.37;6.17;;;17.40;57.40;18.20;95188.00;;;;5018571;28;20223;-84
2022/04/23 08:56:45;;;;;;;6.57;6.00;;;17.40;57.30;18.20;95180.00;;;;5023337;28;20284;-84
2022/04/23 08:59:14;;;;;;;6.50;5.90;;;17.50;57.30;18.30;95180.00;;;;5026888;28;20288;-84
2022/04/23 09:01:45;;;;;;;8.77;6.03;;;17.50;57.40;18.30;95187.00;;;;5031696;28;20205;-84
2022/04/23 09:04:13;;;;;;;7.07;6.37;;;17.50;57.40;18.40;95189.00;;;;5026189;28;20717;-85
2022/04/23 09:06:43;;;;;;;7.43;6.40;;;17.60;57.40;18.50;95182.00;;;;5020148;28;20242;-85
2022/04/23 09:09:17;;;;;;;6.07;5.47;;;17.60;57.30;18.60;95189.00;;;;5025932;28;20208;-85
2022/04/23 09:11:50;;;;;;;6.83;6.10;;;17.70;57.30;18.70;95181.00;;;;5028275;28;20193;-86
2022/04/23 09:14:27;;;;;;;6.47;5.73;;;17.80;57.30;18.80;95189.00;;;;5028431;28;20213;-85
2022/04/23 09:25:36;;;;;;;8.20;5.90;;;18.10;57.10;19.20;95193.00;;;;5012960;28;20217;-85
2022/04/23 09:28:20;;;;;;;7.37;6.13;;;18.20;57.10;19.30;95202.00;;;;5014303;28;20210;-84
2022/04/23 09:30:49;;;;;;;7.27;6.43;;;18.30;56.90;19.40;95194.00;;;;5025049;28;20280;-85
2022/04/23 09:33:19;;;;;;;7.57;6.77;;;18.40;56.90;19.40;95193.00;;;;5033646;28;20205;-87
2022/04/23 09:35:57;;;;;;;8.70;6.40;;;18.40;56.60;19.40;95196.00;;;;5015888;28;20693;-86
2022/04/23 09:38:33;;;;;;;6.60;5.90;;;18.50;56.30;19.40;95206.00;;;;5024343;28;20197;-85
2022/04/23 09:41:16;;;;;;;7.53;6.13;;;18.50;56.10;19.50;95212.00;;;;5032851;28;20221;-85
2022/04/23 09:44:05;;;;;;;6.50;5.83;;;18.60;56.00;19.50;95215.00;;;;5032505;28;20225;-84
2022/04/23 09:46:44;;;;;;;8.50;7.53;;;18.60;55.90;19.50;95209.00;;;;5033210;28;20233;-84
2022/04/23 09:49:12;;;;;;;6.93;6.10;;;18.60;55.70;19.50;95212.00;;;;5033319;28;20948;-84
2022/04/23 09:51:39;;;;;;;7.03;6.33;;;18.60;55.60;19.50;95210.00;;;;5031695;28;20205;-84
2022/04/23 09:54:07;;;;;;;6.73;6.03;;;18.70;55.60;19.50;95213.00;;;;4996479;28;20204;-85
2022/04/23 09:56:34;;;;;;;7.47;6.43;;;18.70;55.50;19.50;95218.00;;;;5024576;28;20214;-84
2022/04/23 09:59:06;;;;;;;8.37;7.50;;;18.70;55.40;19.40;95221.00;;;;5018814;28;20635;-84
2022/04/23 10:01:36;;;;;;;8.30;7.07;;;18.60;55.20;19.40;95220.00;;;;5026841;28;20201;-85
2022/04/23 10:04:08;;;;;;;8.20;7.30;;;18.60;55.20;19.40;95220.00;;;;5025954;28;20308;-85
2022/04/23 10:06:39;;;;;;;8.30;7.30;;;18.60;55.30;19.40;95219.00;;;;5027218;28;20217;-85
2022/04/23 10:09:09;;;;;;;9.20;8.27;;;18.60;55.40;19.40;95223.00;;;;5029912;28;20208;-84
2022/04/23 10:11:43;;;;;;;10.17;8.70;;;18.60;55.40;19.40;95219.00;;;;5031507;28;20283;-84
2022/04/23 10:14:19;;;;;;;11.40;8.60;;;18.60;55.40;19.40;95217.00;;;;5017248;28;20259;-85
2022/04/23 10:16:48;;;;;;;9.10;8.10;;;18.60;55.40;19.50;95221.00;;;;5020115;28;20240;-84
2022/04/23 10:19:19;;;;;;;8.93;8.03;;;18.60;55.50;19.50;95219.00;;;;5028787;28;20209;-85
2022/04/23 10:22:00;;;;;;;10.13;8.57;;;18.60;55.50;19.50;95217.00;;;;5030146;28;20733;-84
2022/04/23 10:24:39;;;;;;;12.07;9.37;;;18.70;55.50;19.50;95217.00;;;;5030641;28;20324;-85
2022/04/23 10:27:10;;;;;;;10.63;8.23;;;18.70;55.50;19.50;95217.00;;;;5032509;28;20241;-84
2022/04/23 10:29:39;;;;;;;10.03;8.97;;;18.70;56.00;19.50;95210.00;;;;5033631;28;20282;-84
2022/04/23 10:32:20;;;;;;;10.87;8.83;;;18.70;55.30;19.50;95215.00;;;;5031813;28;20288;-83
2022/04/23 10:34:48;;;;;;;11.70;9.17;;;18.70;55.20;19.50;95206.00;;;;5027121;28;20244;-85
2022/04/23 10:37:17;;;;;;;11.43;9.43;;;18.70;55.30;19.50;95195.00;;;;5032066;28;20227;-84
2022/04/23 10:40:16;;;;;;;11.13;9.30;;;18.70;55.30;19.50;95203.00;;;;5020301;28;20209;-84
2022/04/23 10:43:12;;;;;;;10.27;8.53;;;18.70;55.20;19.50;95208.00;;;;5032003;28;20185;-83
2022/04/23 10:45:48;;;;;;;10.47;8.33;;;18.70;55.30;19.50;95202.00;;;;5024483;28;20229;-83
2022/04/23 10:48:29;;;;;;;9.83;8.60;;;18.70;56.00;19.60;95195.00;;;;5032760;28;20192;-83
2022/04/23 10:51:16;;;;;;;11.50;9.23;;;18.70;55.40;19.60;95203.00;;;;5033429;28;20236;-84
2022/04/23 10:53:58;;;;;;;10.37;9.03;;;18.70;55.40;19.70;95195.00;;;;5033375;28;20260;-84
2022/04/23 10:56:26;;;;;;;9.73;8.27;;;18.80;55.50;19.70;95184.00;;;;5031930;28;20280;-83
2022/04/23 10:58:54;;;;;;;10.53;8.37;;;18.80;55.40;19.70;95189.00;;;;5032025;28;20204;-85
2022/04/23 11:01:36;;;;;;;11.40;8.27;;;18.80;55.30;19.70;95192.00;;;;5031850;28;20193;-85
2022/04/23 11:04:13;;;;;;;9.63;8.27;;;18.80;55.20;19.70;95180.00;;;;5031522;28;20220;-84
2022/04/23 11:12:54;;;;;;;10.10;8.43;;;18.90;55.00;19.90;95180.00;;;;5052082;23;20747;-80
2022/04/23 11:15:22;;;;;;;9.13;8.00;;;19.00;55.00;19.90;95183.00;;;;5035062;28;20186;-82
2022/04/23 11:17:58;;;;;;;10.07;8.63;;;19.00;55.00;20.00;95183.00;;;;5034874;28;20201;-80
2022/04/23 11:20:36;;;;;;;8.30;7.50;;;19.00;55.00;20.10;95186.00;;;;5034705;28;20189;-82
2022/04/23 11:23:05;;;;;;;9.10;8.20;;;19.10;55.00;20.10;95178.00;;;;5027401;28;20278;-82
2022/04/23 11:25:33;;;;;;;8.37;7.43;;;19.10;54.90;20.20;95185.00;;;;5034049;28;20225;-81
2022/04/23 11:28:21;;;;;;;8.80;7.90;;;19.20;54.80;20.20;95187.00;;;;5035372;28;20206;-82
2022/04/23 11:30:48;;;;;;;9.50;7.53;;;19.30;54.60;20.30;95185.00;;;;5015844;28;20178;-83